createdAt,value
2018-03-25T00:00:00.826Z,989.91
2018-03-25T00:00:41.305Z,989.89
2018-03-25T00:01:21.785Z,989.95
2018-03-25T00:02:02.268Z,989.96
2018-03-25T00:02:42.782Z,989.91
2018-03-25T00:03:23.251Z,989.95
2018-03-25T00:04:03.776Z,989.97
2018-03-25T00:04:44.214Z,989.96
2018-03-25T00:05:24.744Z,989.88
2018-03-25T00:06:05.229Z,989.98
2018-03-25T00:06:45.843Z,989.94
2018-03-25T00:07:26.206Z,989.91
2018-03-25T00:08:06.658Z,989.97
2018-03-25T00:08:47.137Z,990.02
2018-03-25T00:09:27.681Z,989.96
2018-03-25T00:10:08.162Z,990
2018-03-25T00:10:48.681Z,989.99
2018-03-25T00:11:29.188Z,990.01
2018-03-25T00:12:09.742Z,989.97
2018-03-25T00:12:50.200Z,989.96
2018-03-25T00:13:30.688Z,990.02
2018-03-25T00:14:11.207Z,990.03
2018-03-25T00:14:51.658Z,989.98
2018-03-25T00:15:32.144Z,990.02
2018-03-25T00:16:12.666Z,990.01
2018-03-25T00:16:53.128Z,989.95
2018-03-25T00:17:33.614Z,989.98
2018-03-25T00:18:14.069Z,989.98
2018-03-25T00:18:54.557Z,990
2018-03-25T00:19:35.123Z,990
2018-03-25T00:20:15.592Z,989.96
2018-03-25T00:20:56.099Z,989.98
2018-03-25T00:21:36.577Z,989.97
2018-03-25T00:22:17.086Z,989.99
2018-03-25T00:22:57.600Z,990
2018-03-25T00:23:38.093Z,990.03
2018-03-25T00:24:18.563Z,990.05
2018-03-25T00:24:59.054Z,989.96
2018-03-25T00:25:39.560Z,990.03
2018-03-25T00:26:20.065Z,990
2018-03-25T00:27:00.588Z,990.04
2018-03-25T00:27:41.066Z,990.03
2018-03-25T00:28:21.506Z,990.03
2018-03-25T00:29:01.988Z,990.05
2018-03-25T00:29:42.520Z,990.08
2018-03-25T00:30:22.999Z,989.98
2018-03-25T00:31:03.474Z,989.98
2018-03-25T00:31:43.979Z,990.03
2018-03-25T00:32:24.498Z,990
2018-03-25T00:33:04.986Z,990.06
2018-03-25T00:33:45.516Z,990.1
2018-03-25T00:34:25.989Z,990.03
2018-03-25T00:35:06.488Z,990.07
2018-03-25T00:35:46.987Z,990.09
2018-03-25T00:36:27.481Z,990.06
2018-03-25T00:37:08.011Z,990.05
2018-03-25T00:37:48.521Z,990.05
2018-03-25T00:38:29.044Z,990.07
2018-03-25T00:39:09.568Z,990.1
2018-03-25T00:39:50.063Z,990.1
2018-03-25T00:40:30.577Z,990.1
2018-03-25T00:41:11.077Z,990.09
2018-03-25T00:41:51.593Z,990.09
2018-03-25T00:42:32.104Z,990.07
2018-03-25T00:43:12.549Z,990.06
2018-03-25T00:43:53.001Z,990.1
2018-03-25T00:44:33.486Z,990.08
2018-03-25T00:45:13.961Z,990.06
2018-03-25T00:45:54.455Z,990.09
2018-03-25T00:46:34.940Z,990.1
2018-03-25T00:47:15.466Z,990.15
2018-03-25T00:47:55.991Z,990.15
2018-03-25T00:48:36.497Z,990.1
2018-03-25T00:49:16.965Z,990.14
2018-03-25T00:49:57.485Z,990.15
2018-03-25T00:50:37.999Z,990.13
2018-03-25T00:51:18.504Z,990.16
2018-03-25T00:51:58.996Z,990.12
2018-03-25T00:52:39.517Z,990.12
2018-03-25T00:53:20.028Z,990.12
2018-03-25T00:54:00.473Z,990.14
2018-03-25T00:54:40.937Z,990.13
2018-03-25T00:55:21.442Z,990.09
2018-03-25T00:56:01.878Z,990.04
2018-03-25T00:56:42.400Z,990.07
2018-03-25T00:57:23.045Z,990.11
2018-03-25T00:58:03.529Z,990.09
2018-03-25T00:58:44.063Z,990.11
2018-03-25T00:59:24.661Z,990.13
2018-03-25T01:00:05.138Z,990.13
2018-03-25T01:00:45.621Z,990.09
2018-03-25T01:01:26.113Z,990.09
2018-03-25T01:02:06.666Z,990.12
2018-03-25T01:02:47.158Z,990.11
2018-03-25T01:03:27.623Z,990.1
2018-03-25T01:04:08.130Z,990.11
2018-03-25T01:04:48.618Z,990.17
2018-03-25T01:05:29.178Z,990.17
2018-03-25T01:06:09.617Z,990.17
2018-03-25T01:06:50.143Z,990.19
2018-03-25T01:07:30.633Z,990.16
2018-03-25T01:08:11.138Z,990.21
2018-03-25T01:08:51.632Z,990.2
2018-03-25T01:09:32.129Z,990.25
2018-03-25T01:10:12.628Z,990.24
2018-03-25T01:10:53.154Z,990.31
2018-03-25T01:11:33.604Z,990.28
2018-03-25T01:12:14.103Z,990.27
2018-03-25T01:12:54.566Z,990.25
2018-03-25T01:13:35.053Z,990.24
2018-03-25T01:14:15.530Z,990.23
2018-03-25T01:14:56.042Z,990.27
2018-03-25T01:15:36.550Z,990.26
2018-03-25T01:16:17.078Z,990.25
2018-03-25T01:16:57.555Z,990.29
2018-03-25T01:17:38.071Z,990.26
2018-03-25T01:18:18.530Z,990.25
2018-03-25T01:18:59.024Z,990.31
2018-03-25T01:19:39.519Z,990.3
2018-03-25T01:20:20.002Z,990.29
2018-03-25T01:21:00.502Z,990.34
2018-03-25T01:21:40.995Z,990.28
2018-03-25T01:22:21.492Z,990.33
2018-03-25T01:23:01.969Z,990.33
2018-03-25T01:23:42.509Z,990.37
2018-03-25T01:24:22.980Z,990.33
2018-03-25T01:25:03.445Z,990.29
2018-03-25T01:25:43.968Z,990.33
2018-03-25T01:26:24.558Z,990.3
2018-03-25T01:27:04.980Z,990.3
2018-03-25T01:27:45.519Z,990.29
2018-03-25T01:28:25.974Z,990.29
2018-03-25T01:29:06.492Z,990.3
2018-03-25T01:29:47.027Z,990.27
2018-03-25T01:30:30.095Z,990.29
2018-03-25T01:31:10.540Z,990.29
2018-03-25T01:31:51.018Z,990.27
2018-03-25T01:32:31.565Z,990.29
2018-03-25T01:33:12.089Z,990.27
2018-03-25T01:33:52.604Z,990.29
2018-03-25T01:34:33.153Z,990.29
2018-03-25T01:35:13.648Z,990.28
2018-03-25T01:35:54.093Z,990.31
2018-03-25T01:36:34.592Z,990.31
2018-03-25T01:37:15.157Z,990.25
2018-03-25T01:37:55.598Z,990.26
2018-03-25T01:38:36.045Z,990.28
2018-03-25T01:39:16.609Z,990.27
2018-03-25T01:39:57.102Z,990.29
2018-03-25T01:40:37.578Z,990.3
2018-03-25T01:41:18.100Z,990.34
2018-03-25T01:41:58.589Z,990.31
2018-03-25T01:42:39.075Z,990.31
2018-03-25T01:43:19.601Z,990.31
2018-03-25T01:44:00.003Z,990.33
2018-03-25T01:44:40.541Z,990.35
2018-03-25T01:45:21.010Z,990.36
2018-03-25T01:46:01.493Z,990.4
2018-03-25T01:46:41.948Z,990.34
2018-03-25T01:47:22.444Z,990.4
2018-03-25T01:48:02.954Z,990.41
2018-03-25T01:48:43.433Z,990.45
2018-03-25T01:49:23.951Z,990.4
2018-03-25T01:50:04.471Z,990.36
2018-03-25T01:50:44.939Z,990.33
2018-03-25T01:51:25.472Z,990.33
2018-03-25T01:52:05.915Z,990.37
2018-03-25T01:52:46.416Z,990.35
2018-03-25T01:53:26.859Z,990.39
2018-03-25T01:54:07.368Z,990.3
2018-03-25T01:54:47.822Z,990.35
2018-03-25T01:55:28.342Z,990.37
2018-03-25T01:56:08.790Z,990.38
2018-03-25T01:56:49.318Z,990.38
2018-03-25T01:57:29.815Z,990.36
2018-03-25T01:58:10.311Z,990.41
2018-03-25T01:58:50.792Z,990.37
2018-03-25T01:59:31.335Z,990.37
2018-03-25T02:00:11.784Z,990.38
2018-03-25T02:00:52.283Z,990.36
2018-03-25T02:01:32.785Z,990.39
2018-03-25T02:02:13.262Z,990.39
2018-03-25T02:02:53.813Z,990.35
2018-03-25T02:03:34.308Z,990.34
2018-03-25T02:04:14.811Z,990.34
2018-03-25T02:04:55.272Z,990.34
2018-03-25T02:05:35.743Z,990.38
2018-03-25T02:06:16.229Z,990.31
2018-03-25T02:06:56.691Z,990.35
2018-03-25T02:07:37.229Z,990.36
2018-03-25T02:08:17.729Z,990.35
2018-03-25T02:08:58.176Z,990.31
2018-03-25T02:09:38.688Z,990.33
2018-03-25T02:10:19.182Z,990.38
2018-03-25T02:10:59.677Z,990.34
2018-03-25T02:11:40.175Z,990.31
2018-03-25T02:12:20.643Z,990.3
2018-03-25T02:13:01.114Z,990.33
2018-03-25T02:13:41.600Z,990.3
2018-03-25T02:14:22.106Z,990.33
2018-03-25T02:15:02.599Z,990.36
2018-03-25T02:15:43.117Z,990.31
2018-03-25T02:16:23.580Z,990.35
2018-03-25T02:17:04.016Z,990.33
2018-03-25T02:17:44.486Z,990.3
2018-03-25T02:18:25.015Z,990.34
2018-03-25T02:19:05.518Z,990.33
2018-03-25T02:19:45.932Z,990.36
2018-03-25T02:20:26.415Z,990.38
2018-03-25T02:21:06.932Z,990.34
2018-03-25T02:21:47.494Z,990.4
2018-03-25T02:22:27.955Z,990.37
2018-03-25T02:23:08.490Z,990.34
2018-03-25T02:23:48.952Z,990.35
2018-03-25T02:24:29.487Z,990.37
2018-03-25T02:25:09.932Z,990.35
2018-03-25T02:25:50.463Z,990.36
2018-03-25T02:26:30.942Z,990.4
2018-03-25T02:27:11.417Z,990.34
2018-03-25T02:27:51.954Z,990.4
2018-03-25T02:28:32.383Z,990.36
2018-03-25T02:29:12.853Z,990.37
2018-03-25T02:29:53.396Z,990.39
2018-03-25T02:30:33.846Z,990.39
2018-03-25T02:31:14.361Z,990.36
2018-03-25T02:31:54.854Z,990.43
2018-03-25T02:32:35.347Z,990.4
2018-03-25T02:33:15.811Z,990.39
2018-03-25T02:33:56.291Z,990.41
2018-03-25T02:34:36.785Z,990.39
2018-03-25T02:35:17.275Z,990.4
2018-03-25T02:35:57.756Z,990.41
2018-03-25T02:36:38.219Z,990.41
2018-03-25T02:37:18.691Z,990.45
2018-03-25T02:37:59.217Z,990.36
2018-03-25T02:38:39.655Z,990.42
2018-03-25T02:39:20.160Z,990.4
2018-03-25T02:40:00.726Z,990.39
2018-03-25T02:40:41.188Z,990.44
2018-03-25T02:41:21.689Z,990.46
2018-03-25T02:42:02.194Z,990.42
2018-03-25T02:42:42.685Z,990.4
2018-03-25T02:43:23.116Z,990.42
2018-03-25T02:44:03.611Z,990.44
2018-03-25T02:44:44.121Z,990.41
2018-03-25T02:45:24.611Z,990.4
2018-03-25T02:46:05.183Z,990.44
2018-03-25T02:46:45.724Z,990.43
2018-03-25T02:47:26.160Z,990.47
2018-03-25T02:48:06.720Z,990.46
2018-03-25T02:48:47.166Z,990.45
2018-03-25T02:49:27.665Z,990.48
2018-03-25T02:50:08.149Z,990.49
2018-03-25T02:50:48.679Z,990.48
2018-03-25T02:51:29.149Z,990.49
2018-03-25T02:52:09.820Z,990.51
2018-03-25T02:52:50.297Z,990.52
2018-03-25T02:53:30.788Z,990.49
2018-03-25T02:54:11.220Z,990.51
2018-03-25T02:54:51.747Z,990.52
2018-03-25T02:55:32.164Z,990.49
2018-03-25T02:56:12.661Z,990.52
2018-03-25T02:56:53.168Z,990.49
2018-03-25T02:57:33.723Z,990.5
2018-03-25T02:58:14.179Z,990.54
2018-03-25T02:58:54.652Z,990.53
2018-03-25T02:59:35.165Z,990.54
2018-03-25T03:00:15.631Z,990.52
2018-03-25T03:00:56.140Z,990.51
2018-03-25T03:01:36.698Z,990.56
2018-03-25T03:02:17.117Z,990.55
2018-03-25T03:02:57.573Z,990.51
2018-03-25T03:03:38.103Z,990.5
2018-03-25T03:04:18.608Z,990.54
2018-03-25T03:04:59.082Z,990.51
2018-03-25T03:05:39.584Z,990.53
2018-03-25T03:06:20.102Z,990.49
2018-03-25T03:07:00.580Z,990.52
2018-03-25T03:07:41.062Z,990.52
2018-03-25T03:08:21.621Z,990.52
2018-03-25T03:09:02.134Z,990.56
2018-03-25T03:09:42.623Z,990.52
2018-03-25T03:10:23.107Z,990.53
2018-03-25T03:11:03.613Z,990.49
2018-03-25T03:11:44.096Z,990.59
2018-03-25T03:12:24.586Z,990.52
2018-03-25T03:13:05.052Z,990.61
2018-03-25T03:13:45.536Z,990.49
2018-03-25T03:14:26.014Z,990.48
2018-03-25T03:15:06.551Z,990.48
2018-03-25T03:15:46.997Z,990.49
2018-03-25T03:16:27.506Z,990.53
2018-03-25T03:17:08.035Z,990.54
2018-03-25T03:17:48.503Z,990.57
2018-03-25T03:18:28.998Z,990.57
2018-03-25T03:19:09.498Z,990.59
2018-03-25T03:19:49.992Z,990.58
2018-03-25T03:20:30.501Z,990.57
2018-03-25T03:21:10.970Z,990.58
2018-03-25T03:21:51.450Z,990.57
2018-03-25T03:22:31.933Z,990.56
2018-03-25T03:23:12.362Z,990.59
2018-03-25T03:23:52.860Z,990.56
2018-03-25T03:24:33.387Z,990.6
2018-03-25T03:25:13.822Z,990.58
2018-03-25T03:25:54.351Z,990.57
2018-03-25T03:26:34.814Z,990.57
2018-03-25T03:27:15.308Z,990.61
2018-03-25T03:27:55.810Z,990.61
2018-03-25T03:28:36.281Z,990.63
2018-03-25T03:29:16.741Z,990.62
2018-03-25T03:29:57.254Z,990.7
2018-03-25T03:30:37.748Z,990.67
2018-03-25T03:31:18.258Z,990.66
2018-03-25T03:31:58.808Z,990.69
2018-03-25T03:32:39.310Z,990.68
2018-03-25T03:33:19.774Z,990.67
2018-03-25T03:34:00.249Z,990.73
2018-03-25T03:34:40.728Z,990.73
2018-03-25T03:35:21.221Z,990.71
2018-03-25T03:36:01.687Z,990.69
2018-03-25T03:36:42.195Z,990.71
2018-03-25T03:37:22.688Z,990.7
2018-03-25T03:38:03.187Z,990.73
2018-03-25T03:38:43.615Z,990.69
2018-03-25T03:39:24.134Z,990.72
2018-03-25T03:40:04.642Z,990.69
2018-03-25T03:40:45.115Z,990.66
2018-03-25T03:41:25.581Z,990.67
2018-03-25T03:42:06.078Z,990.69
2018-03-25T03:42:46.538Z,990.65
2018-03-25T03:43:27.037Z,990.71
2018-03-25T03:44:07.497Z,990.67
2018-03-25T03:44:48.078Z,990.68
2018-03-25T03:45:28.613Z,990.69
2018-03-25T03:46:09.066Z,990.76
2018-03-25T03:46:49.550Z,990.72
2018-03-25T03:47:30.025Z,990.76
2018-03-25T03:48:10.550Z,990.74
2018-03-25T03:48:51.027Z,990.74
2018-03-25T03:49:31.498Z,990.75
2018-03-25T03:50:11.990Z,990.73
2018-03-25T03:50:52.447Z,990.76
2018-03-25T03:51:32.926Z,990.77
2018-03-25T03:52:13.400Z,990.76
2018-03-25T03:52:53.919Z,990.75
2018-03-25T03:53:34.403Z,990.79
2018-03-25T03:54:14.915Z,990.8
2018-03-25T03:54:55.383Z,990.78
2018-03-25T03:55:35.830Z,990.81
2018-03-25T03:56:16.321Z,990.8
2018-03-25T03:56:56.817Z,990.8
2018-03-25T03:57:37.341Z,990.82
2018-03-25T03:58:17.816Z,990.83
2018-03-25T03:58:58.320Z,990.85
2018-03-25T03:59:38.808Z,990.82
2018-03-25T04:00:19.272Z,990.85
2018-03-25T04:00:59.742Z,990.82
2018-03-25T04:01:40.227Z,990.9
2018-03-25T04:02:20.694Z,990.87
2018-03-25T04:03:01.180Z,990.84
2018-03-25T04:03:41.675Z,990.9
2018-03-25T04:04:22.159Z,990.89
2018-03-25T04:05:02.605Z,990.92
2018-03-25T04:05:43.113Z,990.9
2018-03-25T04:06:23.606Z,990.94
2018-03-25T04:07:04.065Z,990.91
2018-03-25T04:07:44.596Z,990.95
2018-03-25T04:08:25.090Z,990.85
2018-03-25T04:09:05.635Z,990.92
2018-03-25T04:09:46.057Z,990.89
2018-03-25T04:10:26.563Z,990.89
2018-03-25T04:11:07.048Z,990.94
2018-03-25T04:11:47.516Z,990.95
2018-03-25T04:12:28.009Z,990.96
2018-03-25T04:13:08.493Z,990.98
2018-03-25T04:13:48.975Z,990.94
2018-03-25T04:14:29.445Z,990.93
2018-03-25T04:15:09.934Z,990.92
2018-03-25T04:15:50.387Z,990.97
2018-03-25T04:16:30.873Z,990.96
2018-03-25T04:17:11.395Z,990.99
2018-03-25T04:17:51.920Z,991
2018-03-25T04:18:32.373Z,991.02
2018-03-25T04:19:12.888Z,991.02
2018-03-25T04:19:53.346Z,991.04
2018-03-25T04:20:33.787Z,991
2018-03-25T04:21:14.301Z,991.03
2018-03-25T04:21:54.787Z,991.07
2018-03-25T04:22:35.277Z,991.07
2018-03-25T04:23:15.785Z,991.05
2018-03-25T04:23:56.282Z,991.01
2018-03-25T04:24:36.731Z,991.1
2018-03-25T04:25:17.214Z,991.04
2018-03-25T04:25:57.718Z,991.06
2018-03-25T04:26:38.241Z,991.07
2018-03-25T04:27:18.745Z,991.1
2018-03-25T04:27:59.211Z,991.11
2018-03-25T04:28:39.714Z,991.11
2018-03-25T04:29:20.195Z,991.14
2018-03-25T04:30:00.690Z,991.16
2018-03-25T04:30:41.207Z,991.13
2018-03-25T04:31:21.673Z,991.18
2018-03-25T04:32:02.135Z,991.21
2018-03-25T04:32:42.642Z,991.2
2018-03-25T04:33:23.121Z,991.17
2018-03-25T04:34:03.626Z,991.15
2018-03-25T04:34:44.137Z,991.19
2018-03-25T04:35:24.662Z,991.17
2018-03-25T04:36:05.149Z,991.2
2018-03-25T04:36:45.633Z,991.14
2018-03-25T04:37:26.115Z,991.18
2018-03-25T04:38:06.611Z,991.21
2018-03-25T04:38:47.113Z,991.2
2018-03-25T04:39:27.577Z,991.24
2018-03-25T04:40:08.061Z,991.22
2018-03-25T04:40:48.515Z,991.25
2018-03-25T04:41:29.030Z,991.18
2018-03-25T04:42:09.491Z,991.23
2018-03-25T04:42:50.007Z,991.15
2018-03-25T04:43:30.488Z,991.24
2018-03-25T04:44:10.955Z,991.21
2018-03-25T04:44:51.474Z,991.22
2018-03-25T04:45:31.945Z,991.23
2018-03-25T04:46:12.462Z,991.27
2018-03-25T04:46:52.908Z,991.21
2018-03-25T04:47:33.381Z,991.22
2018-03-25T04:48:13.855Z,991.22
2018-03-25T04:48:54.312Z,991.23
2018-03-25T04:49:34.805Z,991.22
2018-03-25T04:50:15.298Z,991.23
2018-03-25T04:50:55.792Z,991.22
2018-03-25T04:51:36.286Z,991.23
2018-03-25T04:52:16.774Z,991.21
2018-03-25T04:52:57.262Z,991.21
2018-03-25T04:53:37.774Z,991.2
2018-03-25T04:54:18.250Z,991.25
2018-03-25T04:54:58.756Z,991.24
2018-03-25T04:55:39.192Z,991.23
2018-03-25T04:56:19.674Z,991.28
2018-03-25T04:57:00.180Z,991.28
2018-03-25T04:57:40.699Z,991.34
2018-03-25T04:58:21.168Z,991.29
2018-03-25T04:59:01.692Z,991.33
2018-03-25T04:59:42.155Z,991.33
2018-03-25T05:00:22.681Z,991.39
2018-03-25T05:01:03.137Z,991.36
2018-03-25T05:01:43.678Z,991.37
2018-03-25T05:02:24.131Z,991.39
2018-03-25T05:03:04.646Z,991.41
2018-03-25T05:03:45.123Z,991.41
2018-03-25T05:04:25.579Z,991.45
2018-03-25T05:05:06.111Z,991.44
2018-03-25T05:05:46.568Z,991.43
2018-03-25T05:06:27.070Z,991.47
2018-03-25T05:07:07.557Z,991.43
2018-03-25T05:07:48.009Z,991.48
2018-03-25T05:08:28.534Z,991.44
2018-03-25T05:09:09.008Z,991.41
2018-03-25T05:09:49.519Z,991.42
2018-03-25T05:10:29.962Z,991.47
2018-03-25T05:11:10.442Z,991.47
2018-03-25T05:11:50.935Z,991.5
2018-03-25T05:12:31.499Z,991.53
2018-03-25T05:13:11.953Z,991.49
2018-03-25T05:13:52.437Z,991.49
2018-03-25T05:14:32.946Z,991.54
2018-03-25T05:15:13.458Z,991.49
2018-03-25T05:15:53.902Z,991.5
2018-03-25T05:16:34.391Z,991.54
2018-03-25T05:17:14.857Z,991.53
2018-03-25T05:17:55.379Z,991.55
2018-03-25T05:18:35.827Z,991.58
2018-03-25T05:19:16.269Z,991.57
2018-03-25T05:19:56.743Z,991.56
2018-03-25T05:20:37.238Z,991.57
2018-03-25T05:21:17.750Z,991.59
2018-03-25T05:21:58.206Z,991.57
2018-03-25T05:22:38.695Z,991.6
2018-03-25T05:23:19.192Z,991.59
2018-03-25T05:23:59.747Z,991.63
2018-03-25T05:24:40.187Z,991.63
2018-03-25T05:25:20.668Z,991.64
2018-03-25T05:26:01.126Z,991.67
2018-03-25T05:26:41.714Z,991.62
2018-03-25T05:27:22.292Z,991.67
2018-03-25T05:28:02.736Z,991.69
2018-03-25T05:28:43.202Z,991.67
2018-03-25T05:29:23.710Z,991.68
2018-03-25T05:30:04.206Z,991.72
2018-03-25T05:30:44.711Z,991.65
2018-03-25T05:31:25.194Z,991.66
2018-03-25T05:32:05.666Z,991.67
2018-03-25T05:32:46.190Z,991.7
2018-03-25T05:33:26.667Z,991.72
2018-03-25T05:34:07.167Z,991.68
2018-03-25T05:34:47.624Z,991.72
2018-03-25T05:35:28.129Z,991.74
2018-03-25T05:36:08.627Z,991.76
2018-03-25T05:36:49.141Z,991.75
2018-03-25T05:37:29.664Z,991.78
2018-03-25T05:38:10.112Z,991.74
2018-03-25T05:38:50.611Z,991.79
2018-03-25T05:39:31.088Z,991.79
2018-03-25T05:40:11.571Z,991.77
2018-03-25T05:40:52.062Z,991.8
2018-03-25T05:41:32.558Z,991.84
2018-03-25T05:42:13.111Z,991.79
2018-03-25T05:42:53.569Z,991.83
2018-03-25T05:43:34.082Z,991.84
2018-03-25T05:44:14.561Z,991.82
2018-03-25T05:44:55.058Z,991.81
2018-03-25T05:45:35.543Z,991.81
2018-03-25T05:46:16.072Z,991.83
2018-03-25T05:46:56.536Z,991.89
2018-03-25T05:47:37.009Z,991.86
2018-03-25T05:48:17.499Z,991.9
2018-03-25T05:48:58.019Z,991.91
2018-03-25T05:49:38.524Z,991.9
2018-03-25T05:50:19.023Z,991.96
2018-03-25T05:50:59.552Z,991.88
2018-03-25T05:51:40.055Z,991.9
2018-03-25T05:52:20.562Z,991.98
2018-03-25T05:53:00.995Z,991.96
2018-03-25T05:53:41.539Z,991.96
2018-03-25T05:54:22.064Z,992
2018-03-25T05:55:02.505Z,992.02
2018-03-25T05:55:42.977Z,992.02
2018-03-25T05:56:23.504Z,992.01
2018-03-25T05:57:03.967Z,992.01
2018-03-25T05:57:44.444Z,992.06
2018-03-25T05:58:24.955Z,992.07
2018-03-25T05:59:05.443Z,992.06
2018-03-25T05:59:45.949Z,992.07
2018-03-25T06:00:26.416Z,992.13
2018-03-25T06:01:06.930Z,992.14
2018-03-25T06:01:47.378Z,992.16
2018-03-25T06:02:27.902Z,992.16
2018-03-25T06:03:08.362Z,992.14
2018-03-25T06:03:48.880Z,992.2
2018-03-25T06:04:29.288Z,992.16
2018-03-25T06:05:09.812Z,992.21
2018-03-25T06:05:50.343Z,992.22
2018-03-25T06:06:30.805Z,992.22
2018-03-25T06:07:11.296Z,992.23
2018-03-25T06:07:51.769Z,992.22
2018-03-25T06:08:32.224Z,992.24
2018-03-25T06:09:12.704Z,992.28
2018-03-25T06:09:53.179Z,992.25
2018-03-25T06:10:33.639Z,992.3
2018-03-25T06:11:14.087Z,992.34
2018-03-25T06:11:54.588Z,992.37
2018-03-25T06:12:35.089Z,992.37
2018-03-25T06:13:15.641Z,992.37
2018-03-25T06:13:56.108Z,992.4
2018-03-25T06:14:36.595Z,992.4
2018-03-25T06:15:17.112Z,992.42
2018-03-25T06:15:57.602Z,992.46
2018-03-25T06:16:38.040Z,992.44
2018-03-25T06:17:18.515Z,992.42
2018-03-25T06:17:59.086Z,992.45
2018-03-25T06:18:39.599Z,992.42
2018-03-25T06:19:20.110Z,992.46
2018-03-25T06:20:00.625Z,992.46
2018-03-25T06:20:41.122Z,992.4
2018-03-25T06:21:21.603Z,992.45
2018-03-25T06:22:02.115Z,992.44
2018-03-25T06:22:42.567Z,992.48
2018-03-25T06:23:23.056Z,992.48
2018-03-25T06:24:03.531Z,992.51
2018-03-25T06:24:44.045Z,992.53
2018-03-25T06:25:24.582Z,992.51
2018-03-25T06:26:05.076Z,992.51
2018-03-25T06:26:45.600Z,992.54
2018-03-25T06:27:26.084Z,992.54
2018-03-25T06:28:06.552Z,992.5
2018-03-25T06:28:47.064Z,992.54
2018-03-25T06:29:27.582Z,992.55
2018-03-25T06:30:08.096Z,992.53
2018-03-25T06:30:48.617Z,992.53
2018-03-25T06:31:29.058Z,992.54
2018-03-25T06:32:09.591Z,992.55
2018-03-25T06:32:50.123Z,992.55
2018-03-25T06:33:30.557Z,992.55
2018-03-25T06:34:11.065Z,992.54
2018-03-25T06:34:51.517Z,992.57
2018-03-25T06:35:32.051Z,992.6
2018-03-25T06:36:13.400Z,992.53
2018-03-25T06:36:53.897Z,992.55
2018-03-25T06:37:34.438Z,992.59
2018-03-25T06:38:14.937Z,992.57
2018-03-25T06:38:55.841Z,992.61
2018-03-25T06:39:36.390Z,992.64
2018-03-25T06:40:16.892Z,992.65
2018-03-25T06:40:57.384Z,992.61
2018-03-25T06:41:37.871Z,992.65
2018-03-25T06:42:18.414Z,992.65
2018-03-25T06:42:58.832Z,992.64
2018-03-25T06:43:39.325Z,992.67
2018-03-25T06:44:19.779Z,992.65
2018-03-25T06:45:00.279Z,992.66
2018-03-25T06:45:40.836Z,992.69
2018-03-25T06:46:21.272Z,992.69
2018-03-25T06:47:01.777Z,992.67
2018-03-25T06:47:42.241Z,992.69
2018-03-25T06:48:22.766Z,992.69
2018-03-25T06:49:03.273Z,992.66
2018-03-25T06:49:43.743Z,992.71
2018-03-25T06:50:24.298Z,992.68
2018-03-25T06:51:04.737Z,992.73
2018-03-25T06:51:45.247Z,992.75
2018-03-25T06:52:25.680Z,992.72
2018-03-25T06:53:06.171Z,992.74
2018-03-25T06:53:46.689Z,992.78
2018-03-25T06:54:27.189Z,992.76
2018-03-25T06:55:07.672Z,992.76
2018-03-25T06:55:48.159Z,992.75
2018-03-25T06:56:28.586Z,992.78
2018-03-25T06:57:09.079Z,992.78
2018-03-25T06:57:49.596Z,992.78
2018-03-25T06:58:30.095Z,992.79
2018-03-25T06:59:10.566Z,992.74
2018-03-25T06:59:51.138Z,992.79
2018-03-25T07:00:31.547Z,992.8
2018-03-25T07:01:12.048Z,992.75
2018-03-25T07:01:52.572Z,992.77
2018-03-25T07:02:33.055Z,992.77
2018-03-25T07:03:13.561Z,992.79
2018-03-25T07:03:54.039Z,992.78
2018-03-25T07:04:34.571Z,992.8
2018-03-25T07:05:15.020Z,992.83
2018-03-25T07:05:55.548Z,992.8
2018-03-25T07:06:36.010Z,992.82
2018-03-25T07:07:16.461Z,992.82
2018-03-25T07:07:56.952Z,992.83
2018-03-25T07:08:37.478Z,992.83
2018-03-25T07:09:17.947Z,992.82
2018-03-25T07:09:58.483Z,992.82
2018-03-25T07:10:39.004Z,992.83
2018-03-25T07:11:19.469Z,992.87
2018-03-25T07:11:59.907Z,992.84
2018-03-25T07:12:40.441Z,992.87
2018-03-25T07:13:20.927Z,992.87
2018-03-25T07:14:01.404Z,992.88
2018-03-25T07:14:41.916Z,992.89
2018-03-25T07:15:22.413Z,992.92
2018-03-25T07:16:02.898Z,992.89
2018-03-25T07:16:43.379Z,992.93
2018-03-25T07:17:23.859Z,992.89
2018-03-25T07:18:04.373Z,992.9
2018-03-25T07:18:44.864Z,992.94
2018-03-25T07:19:25.378Z,992.96
2018-03-25T07:20:05.853Z,992.96
2018-03-25T07:20:46.350Z,992.94
2018-03-25T07:21:26.875Z,992.93
2018-03-25T07:22:07.282Z,992.96
2018-03-25T07:22:47.813Z,992.92
2018-03-25T07:23:28.267Z,993
2018-03-25T07:24:08.788Z,992.97
2018-03-25T07:24:49.257Z,992.98
2018-03-25T07:25:29.732Z,992.98
2018-03-25T07:26:11.449Z,992.96
2018-03-25T07:26:52.044Z,992.97
2018-03-25T07:27:32.561Z,993.04
2018-03-25T07:28:12.972Z,993.05
2018-03-25T07:28:53.491Z,993.01
2018-03-25T07:29:33.990Z,993.05
2018-03-25T07:30:14.655Z,993.05
2018-03-25T07:30:55.224Z,993.09
2018-03-25T07:31:35.677Z,993.08
2018-03-25T07:32:16.132Z,993.07
2018-03-25T07:32:56.625Z,993.08
2018-03-25T07:33:37.121Z,993.1
2018-03-25T07:34:17.644Z,993.12
2018-03-25T07:34:58.183Z,993.11
2018-03-25T07:35:38.617Z,993.11
2018-03-25T07:36:19.085Z,993.14
2018-03-25T07:36:59.559Z,993.14
2018-03-25T07:37:40.094Z,993.21
2018-03-25T07:38:20.588Z,993.2
2018-03-25T07:39:01.039Z,993.2
2018-03-25T07:39:41.567Z,993.18
2018-03-25T07:40:22.096Z,993.21
2018-03-25T07:41:02.652Z,993.24
2018-03-25T07:41:43.111Z,993.2
2018-03-25T07:42:23.616Z,993.23
2018-03-25T07:43:04.097Z,993.27
2018-03-25T07:43:44.633Z,993.24
2018-03-25T07:44:25.812Z,993.25
2018-03-25T07:45:06.299Z,993.22
2018-03-25T07:45:46.821Z,993.26
2018-03-25T07:46:27.352Z,993.29
2018-03-25T07:47:08.001Z,993.22
2018-03-25T07:47:48.476Z,993.25
2018-03-25T07:48:29.033Z,993.25
2018-03-25T07:49:09.477Z,993.24
2018-03-25T07:49:50.072Z,993.3
2018-03-25T07:50:30.563Z,993.24
2018-03-25T07:51:11.046Z,993.29
2018-03-25T07:51:51.536Z,993.32
2018-03-25T07:52:32.172Z,993.32
2018-03-25T07:53:12.485Z,993.39
2018-03-25T07:53:52.989Z,993.33
2018-03-25T07:54:33.544Z,993.36
2018-03-25T07:55:14.022Z,993.37
2018-03-25T07:55:56.108Z,993.33
2018-03-25T07:56:37.102Z,993.35
2018-03-25T07:57:17.595Z,993.33
2018-03-25T07:57:58.068Z,993.38
2018-03-25T07:58:38.585Z,993.36
2018-03-25T07:59:19.213Z,993.39
2018-03-25T07:59:59.700Z,993.37
2018-03-25T08:00:41.377Z,993.36
2018-03-25T08:01:23.155Z,993.39
2018-03-25T08:02:05.121Z,993.42
2018-03-25T08:02:45.806Z,993.43
2018-03-25T08:03:28.209Z,993.4
2018-03-25T08:04:08.642Z,993.38
2018-03-25T08:04:49.552Z,993.38
2018-03-25T08:05:30.134Z,993.42
2018-03-25T08:06:10.705Z,993.4
2018-03-25T08:06:51.135Z,993.34
2018-03-25T08:07:31.603Z,993.37
2018-03-25T08:08:12.276Z,993.41
2018-03-25T08:08:52.757Z,993.41
2018-03-25T08:09:33.308Z,993.37
2018-03-25T08:10:13.795Z,993.32
2018-03-25T08:10:54.276Z,993.37
2018-03-25T08:11:34.742Z,993.38
2018-03-25T08:12:15.282Z,993.35
2018-03-25T08:12:55.794Z,993.39
2018-03-25T08:13:36.259Z,993.37
2018-03-25T08:14:16.718Z,993.39
2018-03-25T08:14:57.249Z,993.35
2018-03-25T08:15:37.713Z,993.35
2018-03-25T08:16:18.264Z,993.42
2018-03-25T08:16:58.747Z,993.4
2018-03-25T08:17:39.207Z,993.42
2018-03-25T08:18:19.698Z,993.45
2018-03-25T08:19:00.204Z,993.46
2018-03-25T08:19:40.682Z,993.44
2018-03-25T08:20:21.190Z,993.51
2018-03-25T08:21:01.651Z,993.47
2018-03-25T08:21:42.200Z,993.49
2018-03-25T08:22:22.654Z,993.51
2018-03-25T08:23:03.370Z,993.52
2018-03-25T08:23:44.042Z,993.53
2018-03-25T08:24:24.707Z,993.52
2018-03-25T08:25:05.174Z,993.55
2018-03-25T08:25:45.658Z,993.51
2018-03-25T08:26:26.282Z,993.6
2018-03-25T08:27:06.606Z,993.55